sensor_id;sensor_type;location;lat;lon;timestamp;pressure;altitude;pressure_sealevel;temperature;humidity
11643;BME280;5877;50.930;6.918;2023-01-28T00:00:27;102136.66;;;1.96;70.61
11643;BME280;5877;50.930;6.918;2023-01-28T00:05:19;102161.38;;;2.11;71.19
11643;BME280;5877;50.930;6.918;2023-01-28T00:10:10;102094.28;;;1.52;71.92
11643;BME280;5877;50.930;6.918;2023-01-28T00:15:02;102118.75;;;1.59;71.67
11643;BME280;5877;50.930;6.918;2023-01-28T00:19:54;102149.34;;;1.77;71.89
11643;BME280;5877;50.930;6.918;2023-01-28T00:24:46;102082.44;;;1.15;72.64
11643;BME280;5877;50.930;6.918;2023-01-28T00:29:37;102111.75;;;1.26;73.14
11643;BME280;5877;50.930;6.918;2023-01-28T00:34:30;102159.19;;;1.49;73.71
11643;BME280;5877;50.930;6.918;2023-01-28T00:39:22;102169.06;;;1.55;74.00
11643;BME280;5877;50.930;6.918;2023-01-28T00:44:14;102140.59;;;1.44;73.74
11643;BME280;5877;50.930;6.918;2023-01-28T00:49:06;102112.59;;;1.38;73.55
11643;BME280;5877;50.930;6.918;2023-01-28T00:53:58;102147.69;;;1.76;72.55
11643;BME280;5877;50.930;6.918;2023-01-28T00:58:50;102173.84;;;2.06;72.28
11643;BME280;5877;50.930;6.918;2023-01-28T01:03:42;102123.22;;;1.91;71.73
11643;BME280;5877;50.930;6.918;2023-01-28T01:08:34;102103.94;;;1.95;71.71
11643;BME280;5877;50.930;6.918;2023-01-28T01:13:26;102076.88;;;1.77;71.71
11643;BME280;5877;50.930;6.918;2023-01-28T01:18:17;102073.81;;;1.60;71.89
11643;BME280;5877;50.930;6.918;2023-01-28T01:23:10;102104.97;;;1.48;72.93
11643;BME280;5877;50.930;6.918;2023-01-28T01:28:04;102142.09;;;1.36;74.09
11643;BME280;5877;50.930;6.918;2023-01-28T01:32:56;102123.22;;;1.11;74.43
11643;BME280;5877;50.930;6.918;2023-01-28T01:37:48;102174.03;;;1.23;74.80
11643;BME280;5877;50.930;6.918;2023-01-28T01:42:39;102165.19;;;1.15;74.52
11643;BME280;5877;50.930;6.918;2023-01-28T01:47:38;102168.06;;;0.99;75.50
11643;BME280;5877;50.930;6.918;2023-01-28T01:52:34;102176.50;;;0.90;75.82
11643;BME280;5877;50.930;6.918;2023-01-28T01:57:30;102121.44;;;0.53;75.84
11643;BME280;5877;50.930;6.918;2023-01-28T02:02:23;102053.91;;;-0.02;76.05
11643;BME280;5877;50.930;6.918;2023-01-28T02:07:17;102097.56;;;0.25;76.37
11643;BME280;5877;50.930;6.918;2023-01-28T02:12:13;102065.03;;;-0.01;76.50
11643;BME280;5877;50.930;6.918;2023-01-28T02:17:08;102183.84;;;0.59;76.89
11643;BME280;5877;50.930;6.918;2023-01-28T02:27:36;102150.13;;;0.24;77.71
11643;BME280;5877;50.930;6.918;2023-01-28T02:32:44;102096.13;;;-0.15;77.97
11643;BME280;5877;50.930;6.918;2023-01-28T02:37:46;102072.75;;;-0.50;78.85
11643;BME280;5877;50.930;6.918;2023-01-28T02:42:42;102195.06;;;0.22;79.49
11643;BME280;5877;50.930;6.918;2023-01-28T02:47:33;102109.25;;;-0.31;79.07
11643;BME280;5877;50.930;6.918;2023-01-28T02:53:05;102196.09;;;0.19;79.42
11643;BME280;5877;50.930;6.918;2023-01-28T03:03:58;102217.28;;;0.12;79.41
11643;BME280;5877;50.930;6.918;2023-01-28T03:08:55;102195.09;;;0.09;79.09
11643;BME280;5877;50.930;6.918;2023-01-28T03:14:08;102111.94;;;-0.20;78.31
11643;BME280;5877;50.930;6.918;2023-01-28T03:19:21;102159.25;;;0.17;77.21
11643;BME280;5877;50.930;6.918;2023-01-28T03:24:44;102124.84;;;0.17;76.49
11643;BME280;5877;50.930;6.918;2023-01-28T03:29:59;102133.16;;;0.46;75.82
11643;BME280;5877;50.930;6.918;2023-01-28T03:35:14;102071.53;;;0.28;75.13
11643;BME280;5877;50.930;6.918;2023-01-28T03:40:28;102219.53;;;1.26;74.43
11643;BME280;5877;50.930;6.918;2023-01-28T03:45:20;102228.69;;;1.19;74.62
11643;BME280;5877;50.930;6.918;2023-01-28T03:50:13;102171.44;;;0.88;74.88
11643;BME280;5877;50.930;6.918;2023-01-28T03:55:18;102133.38;;;0.90;73.50
11643;BME280;5877;50.930;6.918;2023-01-28T04:00:11;102196.88;;;1.29;73.69
11643;BME280;5877;50.930;6.918;2023-01-28T04:05:07;102239.88;;;1.54;73.16
11643;BME280;5877;50.930;6.918;2023-01-28T04:10:09;102244.97;;;1.67;72.59
11643;BME280;5877;50.930;6.918;2023-01-28T04:15:09;101954.00;;;-0.12;72.74
11643;BME280;5877;50.930;6.918;2023-01-28T04:20:10;102136.72;;;1.04;71.69
11643;BME280;5877;50.930;6.918;2023-01-28T04:25:02;102254.66;;;1.76;72.28
11643;BME280;5877;50.930;6.918;2023-01-28T04:29:54;102254.91;;;1.84;72.12
11643;BME280;5877;50.930;6.918;2023-01-28T04:35:04;102242.31;;;1.80;70.63
11643;BME280;5877;50.930;6.918;2023-01-28T04:40:22;102094.81;;;0.87;70.78
11643;BME280;5877;50.930;6.918;2023-01-28T04:45:41;102169.91;;;1.21;70.89
11643;BME280;5877;50.930;6.918;2023-01-28T04:50:48;102200.59;;;1.49;70.80
11643;BME280;5877;50.930;6.918;2023-01-28T04:56:06;102265.03;;;1.87;70.64
11643;BME280;5877;50.930;6.918;2023-01-28T05:00:59;102273.13;;;1.83;70.85
11643;BME280;5877;50.930;6.918;2023-01-28T05:05:52;102224.56;;;1.51;70.02
11643;BME280;5877;50.930;6.918;2023-01-28T05:10:49;102248.13;;;1.59;69.64
11643;BME280;5877;50.930;6.918;2023-01-28T05:15:41;102268.91;;;1.82;68.46
11643;BME280;5877;50.930;6.918;2023-01-28T05:20:33;102120.94;;;0.95;67.22
11643;BME280;5877;50.930;6.918;2023-01-28T05:25:27;102179.94;;;1.25;67.13
11643;BME280;5877;50.930;6.918;2023-01-28T05:30:20;102271.38;;;1.83;67.41
11643;BME280;5877;50.930;6.918;2023-01-28T05:35:12;102192.53;;;1.30;66.84
11643;BME280;5877;50.930;6.918;2023-01-28T05:40:05;102273.03;;;1.84;66.88
11643;BME280;5877;50.930;6.918;2023-01-28T05:44:57;102234.84;;;1.64;66.96
11643;BME280;5877;50.930;6.918;2023-01-28T05:50:23;102153.72;;;0.95;66.69
11643;BME280;5877;50.930;6.918;2023-01-28T05:55:34;102196.41;;;1.36;66.90
11643;BME280;5877;50.930;6.918;2023-01-28T06:00:26;102256.38;;;1.65;66.51
11643;BME280;5877;50.930;6.918;2023-01-28T06:05:19;102215.56;;;1.33;66.32
11643;BME280;5877;50.930;6.918;2023-01-28T06:10:12;102289.22;;;1.75;65.69
11643;BME280;5877;50.930;6.918;2023-01-28T06:15:05;102264.00;;;1.55;66.49
11643;BME280;5877;50.930;6.918;2023-01-28T06:20:20;102206.19;;;1.08;65.49
11643;BME280;5877;50.930;6.918;2023-01-28T06:25:13;102303.69;;;1.67;66.39
11643;BME280;5877;50.930;6.918;2023-01-28T06:30:05;102240.50;;;1.34;66.07
11643;BME280;5877;50.930;6.918;2023-01-28T06:34:57;102276.09;;;1.54;66.24
11643;BME280;5877;50.930;6.918;2023-01-28T06:39:49;102280.00;;;1.60;66.09
11643;BME280;5877;50.930;6.918;2023-01-28T06:44:40;102304.19;;;1.83;66.46
11643;BME280;5877;50.930;6.918;2023-01-28T06:49:32;102308.22;;;1.87;66.46
11643;BME280;5877;50.930;6.918;2023-01-28T06:54:24;102300.34;;;1.88;66.38
11643;BME280;5877;50.930;6.918;2023-01-28T06:59:15;102277.22;;;1.74;66.77
11643;BME280;5877;50.930;6.918;2023-01-28T07:04:07;102306.22;;;1.90;66.81
11643;BME280;5877;50.930;6.918;2023-01-28T07:08:59;102306.19;;;1.79;66.99
11643;BME280;5877;50.930;6.918;2023-01-28T07:13:50;102275.13;;;1.79;66.50
11643;BME280;5877;50.930;6.918;2023-01-28T07:18:42;102317.78;;;1.98;65.61
11643;BME280;5877;50.930;6.918;2023-01-28T07:23:34;102322.69;;;1.89;65.95
11643;BME280;5877;50.930;6.918;2023-01-28T07:28:26;102280.38;;;1.67;66.72
11643;BME280;5877;50.930;6.918;2023-01-28T07:33:19;102320.56;;;1.83;65.26
11643;BME280;5877;50.930;6.918;2023-01-28T07:38:11;102317.16;;;1.83;65.39
11643;BME280;5877;50.930;6.918;2023-01-28T07:43:03;102324.47;;;1.89;65.76
11643;BME280;5877;50.930;6.918;2023-01-28T07:48:03;102231.59;;;1.38;65.22
11643;BME280;5877;50.930;6.918;2023-01-28T07:52:56;102260.16;;;1.72;65.51
11643;BME280;5877;50.930;6.918;2023-01-28T07:57:48;102307.69;;;2.06;64.54
11643;BME280;5877;50.930;6.918;2023-01-28T08:02:41;102317.25;;;2.16;64.44
11643;BME280;5877;50.930;6.918;2023-01-28T08:07:35;102272.00;;;1.98;63.88
11643;BME280;5877;50.930;6.918;2023-01-28T08:12:26;102320.78;;;2.26;63.69
11643;BME280;5877;50.930;6.918;2023-01-28T08:17:18;102317.56;;;2.01;62.57
11643;BME280;5877;50.930;6.918;2023-01-28T08:22:10;102359.81;;;2.01;63.69
11643;BME280;5877;50.930;6.918;2023-01-28T08:27:01;102329.81;;;1.75;63.92
11643;BME280;5877;50.930;6.918;2023-01-28T08:31:54;102362.75;;;1.97;63.20
11643;BME280;5877;50.930;6.918;2023-01-28T08:36:46;102353.44;;;1.94;63.48
11643;BME280;5877;50.930;6.918;2023-01-28T08:41:37;102348.84;;;1.98;63.46
11643;BME280;5877;50.930;6.918;2023-01-28T08:46:29;102362.22;;;2.15;61.66
11643;BME280;5877;50.930;6.918;2023-01-28T08:51:21;102366.56;;;2.15;61.95
11643;BME280;5877;50.930;6.918;2023-01-28T08:56:12;102312.91;;;1.82;61.17
11643;BME280;5877;50.930;6.918;2023-01-28T09:01:04;102293.34;;;1.78;61.51
11643;BME280;5877;50.930;6.918;2023-01-28T09:06:01;102376.59;;;2.19;60.91
11643;BME280;5877;50.930;6.918;2023-01-28T09:10:56;102386.28;;;2.40;60.88
11643;BME280;5877;50.930;6.918;2023-01-28T09:15:48;102389.59;;;2.42;60.35
11643;BME280;5877;50.930;6.918;2023-01-28T09:20:41;102365.53;;;2.28;59.50
11643;BME280;5877;50.930;6.918;2023-01-28T09:25:33;102397.19;;;2.21;60.28
11643;BME280;5877;50.930;6.918;2023-01-28T09:30:27;102428.16;;;2.22;60.97
11643;BME280;5877;50.930;6.918;2023-01-28T09:35:20;102429.63;;;2.38;60.64
11643;BME280;5877;50.930;6.918;2023-01-28T09:40:16;102234.84;;;1.29;59.63
11643;BME280;5877;50.930;6.918;2023-01-28T09:45:16;102306.97;;;1.69;58.54
11643;BME280;5877;50.930;6.918;2023-01-28T09:50:34;102281.50;;;1.51;59.10
11643;BME280;5877;50.930;6.918;2023-01-28T09:55:36;102382.22;;;2.13;58.87
11643;BME280;5877;50.930;6.918;2023-01-28T10:00:44;102370.88;;;2.03;59.23
11643;BME280;5877;50.930;6.918;2023-01-28T10:05:50;102449.69;;;2.47;58.90
11643;BME280;5877;50.930;6.918;2023-01-28T10:11:35;102359.81;;;2.01;59.26
11643;BME280;5877;50.930;6.918;2023-01-28T10:16:36;102452.34;;;2.34;61.02
11643;BME280;5877;50.930;6.918;2023-01-28T10:21:38;102395.84;;;2.04;60.40
11643;BME280;5877;50.930;6.918;2023-01-28T10:26:35;102348.59;;;1.66;60.43
11643;BME280;5877;50.930;6.918;2023-01-28T10:31:31;102418.50;;;2.24;59.86
11643;BME280;5877;50.930;6.918;2023-01-28T10:36:25;102207.06;;;0.96;59.84
11643;BME280;5877;50.930;6.918;2023-01-28T10:41:20;102391.97;;;2.10;59.60
11643;BME280;5877;50.930;6.918;2023-01-28T10:46:20;102440.16;;;2.58;58.98
11643;BME280;5877;50.930;6.918;2023-01-28T10:51:13;102452.91;;;2.73;58.76
11643;BME280;5877;50.930;6.918;2023-01-28T10:56:12;102393.84;;;2.43;58.44
11643;BME280;5877;50.930;6.918;2023-01-28T11:01:06;102432.16;;;2.73;57.58
11643;BME280;5877;50.930;6.918;2023-01-28T11:05:58;102278.97;;;1.62;55.76
11643;BME280;5877;50.930;6.918;2023-01-28T11:10:50;102443.44;;;2.60;56.98
11643;BME280;5877;50.930;6.918;2023-01-28T11:20:59;102436.75;;;2.69;55.78
11643;BME280;5877;50.930;6.918;2023-01-28T11:26:04;102396.78;;;2.60;54.60
11643;BME280;5877;50.930;6.918;2023-01-28T11:30:58;102346.50;;;2.52;54.77
11643;BME280;5877;50.930;6.918;2023-01-28T11:36:03;102382.78;;;2.74;55.11
11643;BME280;5877;50.930;6.918;2023-01-28T11:40:56;102428.66;;;3.07;55.48
11643;BME280;5877;50.930;6.918;2023-01-28T11:51:00;102448.53;;;2.73;55.14
11643;BME280;5877;50.930;6.918;2023-01-28T12:01:09;102313.41;;;1.87;55.24
11643;BME280;5877;50.930;6.918;2023-01-28T12:06:24;102414.19;;;2.36;55.53
11643;BME280;5877;50.930;6.918;2023-01-28T12:17:35;102291.84;;;1.86;54.94
11643;BME280;5877;50.930;6.918;2023-01-28T12:28:06;102344.00;;;2.28;55.52
11643;BME280;5877;50.930;6.918;2023-01-28T12:44:04;102424.28;;;2.85;54.49
11643;BME280;5877;50.930;6.918;2023-01-28T12:49:04;102427.31;;;2.57;54.97
11643;BME280;5877;50.930;6.918;2023-01-28T12:54:18;102413.75;;;2.65;55.32
11643;BME280;5877;50.930;6.918;2023-01-28T12:59:12;102403.63;;;2.61;55.82
11643;BME280;5877;50.930;6.918;2023-01-28T13:04:12;102321.16;;;2.33;54.79
11643;BME280;5877;50.930;6.918;2023-01-28T13:09:16;102391.50;;;2.96;54.60
11643;BME280;5877;50.930;6.918;2023-01-28T13:14:11;102373.22;;;3.19;53.30
11643;BME280;5877;50.930;6.918;2023-01-28T13:19:10;102285.53;;;3.02;53.19
11643;BME280;5877;50.930;6.918;2023-01-28T13:34:02;102309.88;;;2.56;54.36
11643;BME280;5877;50.930;6.918;2023-01-28T13:39:05;102327.22;;;2.10;55.38
11643;BME280;5877;50.930;6.918;2023-01-28T13:44:17;102300.41;;;1.76;56.39
11643;BME280;5877;50.930;6.918;2023-01-28T13:49:14;102314.59;;;1.94;55.95
11643;BME280;5877;50.930;6.918;2023-01-28T13:54:13;102360.44;;;2.16;55.01
11643;BME280;5877;50.930;6.918;2023-01-28T13:59:27;102352.06;;;2.12;55.50
11643;BME280;5877;50.930;6.918;2023-01-28T14:15:13;102364.66;;;2.06;56.15
11643;BME280;5877;50.930;6.918;2023-01-28T14:20:18;102372.91;;;2.11;55.23
11643;BME280;5877;50.930;6.918;2023-01-28T14:25:15;102399.56;;;2.24;55.35
11643;BME280;5877;50.930;6.918;2023-01-28T14:35:08;102389.53;;;2.19;55.71
11643;BME280;5877;50.930;6.918;2023-01-28T14:40:05;102361.88;;;1.85;57.79
11643;BME280;5877;50.930;6.918;2023-01-28T14:45:12;102395.00;;;2.04;57.26
11643;BME280;5877;50.930;6.918;2023-01-28T14:50:27;102380.81;;;1.85;56.20
11643;BME280;5877;50.930;6.918;2023-01-28T14:55:28;102377.06;;;1.66;56.88
11643;BME280;5877;50.930;6.918;2023-01-28T15:00:26;102335.31;;;1.22;58.50
11643;BME280;5877;50.930;6.918;2023-01-28T15:05:24;102285.78;;;0.79;58.02
11643;BME280;5877;50.930;6.918;2023-01-28T15:10:29;102368.84;;;1.24;58.44
11643;BME280;5877;50.930;6.918;2023-01-28T15:15:38;102358.91;;;1.18;59.12
11643;BME280;5877;50.930;6.918;2023-01-28T15:20:30;102224.91;;;0.26;59.95
11643;BME280;5877;50.930;6.918;2023-01-28T15:25:25;102343.47;;;0.92;60.01
11643;BME280;5877;50.930;6.918;2023-01-28T15:30:22;102297.81;;;0.55;60.11
11643;BME280;5877;50.930;6.918;2023-01-28T15:35:13;102337.19;;;0.71;60.44
11643;BME280;5877;50.930;6.918;2023-01-28T15:40:05;102340.69;;;0.70;61.05
11643;BME280;5877;50.930;6.918;2023-01-28T15:44:57;102352.28;;;0.64;60.81
11643;BME280;5877;50.930;6.918;2023-01-28T15:49:55;102361.78;;;0.64;61.25
11643;BME280;5877;50.930;6.918;2023-01-28T15:54:50;102325.81;;;0.36;62.52
11643;BME280;5877;50.930;6.918;2023-01-28T15:59:42;102364.06;;;0.56;62.65
11643;BME280;5877;50.930;6.918;2023-01-28T16:04:37;102368.06;;;0.35;62.78
11643;BME280;5877;50.930;6.918;2023-01-28T16:09:30;102289.63;;;-0.28;63.27
11643;BME280;5877;50.930;6.918;2023-01-28T16:14:27;102244.44;;;-0.73;64.02
11643;BME280;5877;50.930;6.918;2023-01-28T16:19:44;102388.78;;;0.08;64.61
11643;BME280;5877;50.930;6.918;2023-01-28T16:24:47;102403.97;;;-0.01;64.57
11643;BME280;5877;50.930;6.918;2023-01-28T16:29:39;102274.47;;;-0.86;65.14
11643;BME280;5877;50.930;6.918;2023-01-28T16:34:31;102397.84;;;-0.12;66.23
11643;BME280;5877;50.930;6.918;2023-01-28T16:39:23;102396.81;;;-0.37;65.94
11643;BME280;5877;50.930;6.918;2023-01-28T16:44:15;102435.66;;;-0.25;66.10
11643;BME280;5877;50.930;6.918;2023-01-28T16:49:08;102284.69;;;-1.26;66.75
11643;BME280;5877;50.930;6.918;2023-01-28T16:53:59;102466.72;;;-0.27;67.01
11643;BME280;5877;50.930;6.918;2023-01-28T16:58:52;102464.97;;;-0.26;66.66
11643;BME280;5877;50.930;6.918;2023-01-28T17:03:43;102392.94;;;-0.71;66.07
11643;BME280;5877;50.930;6.918;2023-01-28T17:08:35;102316.06;;;-1.34;66.11
11643;BME280;5877;50.930;6.918;2023-01-28T17:13:27;102474.09;;;-0.35;66.39
11643;BME280;5877;50.930;6.918;2023-01-28T17:18:18;102494.09;;;-0.39;66.00
11643;BME280;5877;50.930;6.918;2023-01-28T17:23:13;102339.22;;;-1.34;66.23
11643;BME280;5877;50.930;6.918;2023-01-28T17:28:07;102304.72;;;-1.74;67.49
11643;BME280;5877;50.930;6.918;2023-01-28T17:32:59;102157.63;;;-2.67;68.38
11643;BME280;5877;50.930;6.918;2023-01-28T17:37:52;102452.88;;;-0.81;68.53
11643;BME280;5877;50.930;6.918;2023-01-28T17:42:44;102392.50;;;-1.20;68.45
11643;BME280;5877;50.930;6.918;2023-01-28T17:47:36;102356.69;;;-1.53;68.63
11643;BME280;5877;50.930;6.918;2023-01-28T17:52:28;102454.44;;;-0.93;68.96
11643;BME280;5877;50.930;6.918;2023-01-28T17:57:20;102436.94;;;-1.02;69.69
11643;BME280;5877;50.930;6.918;2023-01-28T18:02:12;102347.19;;;-1.67;70.53
11643;BME280;5877;50.930;6.918;2023-01-28T18:07:05;102391.28;;;-1.43;70.30
11643;BME280;5877;50.930;6.918;2023-01-28T18:12:01;102394.66;;;-1.56;71.32
11643;BME280;5877;50.930;6.918;2023-01-28T18:16:53;102486.81;;;-1.17;71.51
11643;BME280;5877;50.930;6.918;2023-01-28T18:21:44;102520.28;;;-1.17;70.63
11643;BME280;5877;50.930;6.918;2023-01-28T18:26:43;102518.06;;;-1.23;71.82
11643;BME280;5877;50.930;6.918;2023-01-28T18:31:35;102457.81;;;-1.65;71.56
11643;BME280;5877;50.930;6.918;2023-01-28T18:36:27;102456.31;;;-1.69;71.83
11643;BME280;5877;50.930;6.918;2023-01-28T18:41:18;102489.00;;;-1.55;72.40
11643;BME280;5877;50.930;6.918;2023-01-28T18:46:16;102444.31;;;-1.84;72.40
11643;BME280;5877;50.930;6.918;2023-01-28T18:51:11;102444.66;;;-1.90;72.54
11643;BME280;5877;50.930;6.918;2023-01-28T18:56:19;102519.56;;;-1.49;73.65
11643;BME280;5877;50.930;6.918;2023-01-28T19:01:11;102527.88;;;-1.60;73.78
11643;BME280;5877;50.930;6.918;2023-01-28T19:06:07;102493.19;;;-1.84;73.57
11643;BME280;5877;50.930;6.918;2023-01-28T19:10:59;102495.53;;;-1.80;73.38
11643;BME280;5877;50.930;6.918;2023-01-28T19:15:51;102535.28;;;-1.70;74.53
11643;BME280;5877;50.930;6.918;2023-01-28T19:20:43;102534.88;;;-1.78;74.85
11643;BME280;5877;50.930;6.918;2023-01-28T19:25:34;102518.03;;;-1.83;74.97
11643;BME280;5877;50.930;6.918;2023-01-28T19:30:26;102546.16;;;-1.65;75.41
11643;BME280;5877;50.930;6.918;2023-01-28T19:35:19;102517.94;;;-1.82;74.71
11643;BME280;5877;50.930;6.918;2023-01-28T19:40:11;102537.69;;;-1.67;74.44
11643;BME280;5877;50.930;6.918;2023-01-28T19:45:03;102515.69;;;-1.88;75.27
11643;BME280;5877;50.930;6.918;2023-01-28T19:49:56;102464.44;;;-2.22;75.38
11643;BME280;5877;50.930;6.918;2023-01-28T19:54:48;102475.13;;;-2.14;75.20
11643;BME280;5877;50.930;6.918;2023-01-28T19:59:39;102484.50;;;-2.13;75.35
11643;BME280;5877;50.930;6.918;2023-01-28T20:04:31;102553.97;;;-1.82;75.52
11643;BME280;5877;50.930;6.918;2023-01-28T20:09:23;102548.66;;;-1.79;76.09
11643;BME280;5877;50.930;6.918;2023-01-28T20:14:15;102553.06;;;-1.81;75.81
11643;BME280;5877;50.930;6.918;2023-01-28T20:19:16;102554.06;;;-1.83;75.83
11643;BME280;5877;50.930;6.918;2023-01-28T20:24:14;102470.97;;;-2.33;75.21
11643;BME280;5877;50.930;6.918;2023-01-28T20:29:13;102536.69;;;-1.96;75.77
11643;BME280;5877;50.930;6.918;2023-01-28T20:34:13;102550.41;;;-1.95;75.83
11643;BME280;5877;50.930;6.918;2023-01-28T20:39:05;102545.25;;;-1.95;76.37
11643;BME280;5877;50.930;6.918;2023-01-28T20:43:56;102549.81;;;-2.00;75.97
11643;BME280;5877;50.930;6.918;2023-01-28T20:48:48;102538.84;;;-2.04;76.83
11643;BME280;5877;50.930;6.918;2023-01-28T20:53:41;102517.03;;;-2.28;77.07
11643;BME280;5877;50.930;6.918;2023-01-28T20:58:35;102540.69;;;-2.06;76.05
11643;BME280;5877;50.930;6.918;2023-01-28T21:03:27;101977.72;;;-5.65;76.60
11643;BME280;5877;50.930;6.918;2023-01-28T21:08:19;102530.88;;;-2.15;76.61
11643;BME280;5877;50.930;6.918;2023-01-28T21:13:11;102521.16;;;-2.25;76.89
11643;BME280;5877;50.930;6.918;2023-01-28T21:18:03;102514.44;;;-2.44;77.46
11643;BME280;5877;50.930;6.918;2023-01-28T21:22:56;102456.75;;;-2.87;77.36
11643;BME280;5877;50.930;6.918;2023-01-28T21:27:48;102514.16;;;-2.55;77.29
11643;BME280;5877;50.930;6.918;2023-01-28T21:32:40;102515.97;;;-2.57;77.31
11643;BME280;5877;50.930;6.918;2023-01-28T21:37:32;102506.69;;;-2.59;77.13
11643;BME280;5877;50.930;6.918;2023-01-28T21:42:24;102500.47;;;-2.71;78.16
11643;BME280;5877;50.930;6.918;2023-01-28T21:47:16;102402.38;;;-3.28;79.35
11643;BME280;5877;50.930;6.918;2023-01-28T21:52:07;102474.66;;;-2.85;79.46
11643;BME280;5877;50.930;6.918;2023-01-28T21:56:59;102456.59;;;-2.84;79.31
11643;BME280;5877;50.930;6.918;2023-01-28T22:01:51;102487.38;;;-2.67;78.86
11643;BME280;5877;50.930;6.918;2023-01-28T22:06:43;102483.06;;;-2.66;79.76
11643;BME280;5877;50.930;6.918;2023-01-28T22:11:35;102483.06;;;-2.66;79.79
11643;BME280;5877;50.930;6.918;2023-01-28T22:16:27;102480.22;;;-2.77;79.86
11643;BME280;5877;50.930;6.918;2023-01-28T22:21:18;102477.38;;;-2.88;80.28
11643;BME280;5877;50.930;6.918;2023-01-28T22:26:10;102490.97;;;-2.86;80.13
11643;BME280;5877;50.930;6.918;2023-01-28T22:31:10;102420.94;;;-3.23;79.69
11643;BME280;5877;50.930;6.918;2023-01-28T22:36:08;102392.88;;;-3.61;79.42
11643;BME280;5877;50.930;6.918;2023-01-28T22:41:06;102428.94;;;-3.12;79.09
11643;BME280;5877;50.930;6.918;2023-01-28T22:45:59;102360.66;;;-3.66;79.51
11643;BME280;5877;50.930;6.918;2023-01-28T22:50:50;102301.09;;;-4.06;79.26
11643;BME280;5877;50.930;6.918;2023-01-28T22:55:43;102475.59;;;-3.04;79.87
11643;BME280;5877;50.930;6.918;2023-01-28T23:00:35;102490.72;;;-3.15;79.79
11643;BME280;5877;50.930;6.918;2023-01-28T23:05:27;102416.97;;;-3.63;79.59
11643;BME280;5877;50.930;6.918;2023-01-28T23:10:19;102458.69;;;-3.60;80.07
11643;BME280;5877;50.930;6.918;2023-01-28T23:15:10;102518.44;;;-3.21;79.82
11643;BME280;5877;50.930;6.918;2023-01-28T23:20:21;102509.91;;;-3.22;79.76
11643;BME280;5877;50.930;6.918;2023-01-28T23:25:31;102470.31;;;-3.52;81.56
11643;BME280;5877;50.930;6.918;2023-01-28T23:30:23;102451.06;;;-3.61;80.64
11643;BME280;5877;50.930;6.918;2023-01-28T23:35:16;102508.22;;;-3.23;80.66
11643;BME280;5877;50.930;6.918;2023-01-28T23:40:12;102414.16;;;-3.76;81.51
11643;BME280;5877;50.930;6.918;2023-01-28T23:45:05;102464.50;;;-3.39;80.66
11643;BME280;5877;50.930;6.918;2023-01-28T23:49:57;102400.44;;;-3.75;81.10
11643;BME280;5877;50.930;6.918;2023-01-28T23:54:48;102493.56;;;-3.04;81.32
11643;BME280;5877;50.930;6.918;2023-01-28T23:59:40;102492.91;;;-3.07;80.75
